Terminal Aerodrome Forecast
Issued by NWS Austin/San Antonio, TX

Home | Current Version | Previous Version | Text Only | Print | Product List | Glossary On
Versions: 1 2 3 4 5 6 7 8 9 10 11 12 13 14 15 16 17
000
FTUS44 KEWX 311700
TAFAUS
TAF
KAUS 311720Z 3118/0124 13011KT 5SM -RA BR OVC014
     FM312000 13008KT 2SM -RA BR OVC007
     FM010600 18006KT 5SM BR OVC005
     FM011100 19006KT 3SM BR OVC004
     FM011700 22009KT P6SM OVC010=

USA.gov is the U.S. government's official web portal to all federal, state and local government web resources and services.